Time;durP1;ratioP1;P1;durP2;ratioP2;P2;SDS_P1;SDS_P2;PMS_P1;PMS_P2;Temp;Humidity;BMP_temperature;BMP_pressure;BME280_temperature;BME280_humidity;BME280_pressure;Samples;Min_cycle;Max_cycle;Signal;HPM_P1;HPM_P2
2022/01/20 00:02:18;;;;;;;48.98;23.32;;;;;;;0.09;86.16;99566.78;1714667;83;25668;-70
2022/01/20 00:05:03;;;;;;;45.03;23.07;;;;;;;0.12;86.03;99570.23;1714999;83;25705;-70
2022/01/20 00:26:14;;;;;;;44.73;20.92;;;;;;;0.17;84.86;99531.70;1676371;85;27335;-70
2022/01/20 00:28:45;;;;;;;45.23;21.68;;;;;;;0.16;84.47;99530.12;1675322;85;25967;-69
2022/01/20 00:38:40;;;;;;;42.67;21.80;;;;;;;0.17;84.61;99510.42;1676274;85;27385;-71
2022/01/20 00:41:12;;;;;;;41.08;21.27;;;;;;;0.17;84.38;99499.78;1676113;84;25819;-71
2022/01/20 00:43:35;;;;;;;40.30;21.15;;;;;;;0.19;84.26;99503.01;1675621;85;25742;-71
2022/01/20 00:46:02;;;;;;;39.33;21.12;;;;;;;0.21;84.23;99510.73;1676280;85;25982;-71
2022/01/20 00:48:28;;;;;;;39.35;21.40;;;;;;;0.21;84.20;99500.88;1676385;85;26227;-71
2022/01/20 00:50:54;;;;;;;36.20;20.35;;;;;;;0.24;84.46;99488.91;1676298;85;27375;-72
2022/01/20 00:53:21;;;;;;;41.15;21.40;;;;;;;0.24;84.50;99476.94;1631057;85;25830;-70
2022/01/20 00:55:47;;;;;;;40.90;18.85;;;;;;;0.27;84.28;99472.44;1676332;85;25793;-72
2022/01/20 00:58:14;;;;;;;41.55;20.95;;;;;;;0.29;84.42;99464.98;1674674;85;25365;-71
2022/01/20 01:00:40;;;;;;;36.55;19.90;;;;;;;0.32;84.21;99460.48;1700748;83;25743;-71
2022/01/20 01:03:07;;;;;;;42.95;21.95;;;;;;;0.35;84.20;99471.94;1690244;83;27204;-71
2022/01/20 01:05:39;;;;;;;37.73;20.90;;;;;;;0.37;84.20;99456.51;1712892;83;25506;-72
2022/01/20 01:08:02;;;;;;;38.33;19.67;;;;;;;0.40;84.19;99454.66;1712193;83;25456;-73
2022/01/20 01:10:33;;;;;;;37.20;20.45;;;;;;;0.44;84.09;99453.60;1712926;83;25822;-72
2022/01/20 01:13:09;;;;;;;35.68;19.48;;;;;;;0.47;84.18;99461.06;1712843;83;25648;-72
2022/01/20 01:15:37;;;;;;;35.30;19.95;;;;;;;0.50;84.26;99443.25;1712362;83;27397;-72
2022/01/20 01:23:35;;;;;;;38.75;21.10;;;;;;;0.54;83.48;99428.34;1706121;83;25600;-73
2022/01/20 01:26:14;;;;;;;39.45;20.90;;;;;;;0.50;83.33;99421.42;1706220;84;25323;-73
2022/01/20 01:28:42;;;;;;;39.53;20.92;;;;;;;0.50;83.41;99417.97;1706217;83;27346;-73
2022/01/20 01:33:41;;;;;;;36.83;18.95;;;;;;;0.44;83.09;99403.84;1706395;84;25557;-72
2022/01/20 01:36:08;;;;;;;35.20;19.62;;;;;;;0.41;83.22;99397.73;1706010;84;25957;-72
2022/01/20 01:38:42;;;;;;;36.95;20.17;;;;;;;0.41;83.13;99406.23;1706010;83;25455;-72
2022/01/20 01:41:14;;;;;;;44.65;22.17;;;;;;;0.39;83.20;99396.39;1706164;84;27315;-71
2022/01/20 01:43:45;;;;;;;39.27;20.57;;;;;;;0.36;83.04;99391.08;1706266;84;25621;-72
2022/01/20 01:46:14;;;;;;;40.48;20.97;;;;;;;0.38;83.05;99385.50;1682972;84;25679;-72
2022/01/20 01:48:43;;;;;;;42.90;21.73;;;;;;;0.36;83.13;99385.22;1706350;84;26156;-72
2022/01/20 01:51:10;;;;;;;37.88;20.35;;;;;;;0.34;83.02;99375.89;1706392;84;25493;-73
2022/01/20 01:53:38;;;;;;;32.80;19.52;;;;;;;0.35;82.93;99365.52;1705889;84;27307;-73
2022/01/20 01:56:06;;;;;;;37.13;20.65;;;;;;;0.35;82.96;99356.21;1705890;84;25523;-73
2022/01/20 01:58:33;;;;;;;39.30;21.50;;;;;;;0.35;83.30;99330.94;1713167;82;25652;-72
2022/01/20 02:01:00;;;;;;;38.42;20.20;;;;;;;0.35;83.23;99329.06;1725939;83;25987;-72
2022/01/20 02:03:28;;;;;;;36.35;19.90;;;;;;;0.37;83.35;99332.80;1725875;83;25653;-72
2022/01/20 02:06:17;;;;;;;39.38;21.50;;;;;;;0.39;83.44;99331.20;1725899;83;27848;-70
2022/01/20 02:08:39;;;;;;;39.60;20.77;;;;;;;0.40;83.21;99330.16;1721897;83;25680;-71
2022/01/20 02:19:18;;;;;;;39.73;21.25;;;;;;;0.43;83.71;99307.80;1725887;83;27335;-71
2022/01/20 02:21:56;;;;;;;42.48;21.10;;;;;;;0.43;83.95;99303.81;1726047;83;25577;-71
2022/01/20 02:24:23;;;;;;;51.55;22.45;;;;;;;0.43;84.25;99309.67;1725969;83;25450;-72
2022/01/20 02:26:50;;;;;;;42.88;21.25;;;;;;;0.42;84.56;99303.53;1725447;83;25760;-71
2022/01/20 02:29:18;;;;;;;38.00;21.70;;;;;;;0.41;84.58;99309.94;1725956;83;25670;-72
2022/01/20 02:31:45;;;;;;;43.38;23.32;;;;;;;0.42;85.21;99308.06;1726019;81;27325;-72
2022/01/20 02:34:14;;;;;;;44.77;23.30;;;;;;;0.41;85.15;99289.98;1725825;83;25649;-72
2022/01/20 02:36:45;;;;;;;41.40;22.75;;;;;;;0.41;85.35;99285.99;1726006;83;26093;-72
2022/01/20 02:47:16;;;;;;;40.50;20.72;;;;;;;0.38;85.91;99274.55;1725669;83;25271;-71
2022/01/20 02:49:42;;;;;;;40.60;23.47;;;;;;;0.39;86.01;99268.69;1725881;83;25671;-71
2022/01/20 02:52:09;;;;;;;46.88;22.00;;;;;;;0.38;86.65;99263.91;1725878;83;26060;-74
2022/01/20 02:54:36;;;;;;;39.73;22.00;;;;;;;0.38;86.75;99260.45;1725947;83;25641;-74
2022/01/20 02:57:05;;;;;;;38.02;21.45;;;;;;;0.36;87.46;99244.76;1725835;81;27441;-74
2022/01/20 02:59:38;;;;;;;41.02;23.10;;;;;;;0.34;87.36;99238.37;1721802;82;25767;-72
2022/01/20 03:02:03;;;;;;;44.05;23.25;;;;;;;0.32;87.91;99232.52;1725085;83;25635;-72
2022/01/20 03:04:30;;;;;;;45.43;23.07;;;;;;;0.31;87.58;99221.61;1726656;83;25924;-72
2022/01/20 03:06:58;;;;;;;44.42;23.22;;;;;;;0.27;88.58;99223.19;1726347;83;25603;-72
2022/01/20 03:09:24;;;;;;;41.95;22.80;;;;;;;0.26;88.54;99228.80;1726394;83;27373;-72
2022/01/20 03:11:53;;;;;;;40.65;22.22;;;;;;;0.25;88.22;99215.22;1726422;83;25932;-72
2022/01/20 03:14:20;;;;;;;39.88;23.10;;;;;;;0.22;88.98;99210.43;1726449;83;25785;-72
2022/01/20 03:16:48;;;;;;;40.10;21.82;;;;;;;0.20;89.69;99210.70;1726464;83;26987;-72
2022/01/20 03:19:16;;;;;;;45.97;24.10;;;;;;;0.18;89.59;99215.48;1726649;83;25427;-72
2022/01/20 03:21:44;;;;;;;45.48;23.10;;;;;;;0.15;89.71;99205.38;1726468;83;27332;-71
2022/01/20 03:24:11;;;;;;;43.13;22.93;;;;;;;0.14;90.46;99202.47;1726379;83;25702;-71
2022/01/20 03:26:38;;;;;;;45.73;23.42;;;;;;;0.10;90.39;99195.56;1726122;82;25697;-72
2022/01/20 03:29:06;;;;;;;44.08;22.95;;;;;;;0.08;90.11;99202.19;1726354;83;25702;-72
2022/01/20 03:31:34;;;;;;;42.85;23.30;;;;;;;0.05;95.39;99191.58;1726497;83;25470;-71
2022/01/20 03:34:01;;;;;;;47.40;23.70;;;;;;;0.04;96.05;99189.97;1726371;83;27977;-71
2022/01/20 03:36:27;;;;;;;40.95;22.73;;;;;;;0.03;96.10;99184.91;1726239;83;25896;-71
2022/01/20 03:38:53;;;;;;;44.40;24.20;;;;;;;0.00;95.84;99180.94;1726094;83;25812;-72
2022/01/20 03:41:20;;;;;;;44.73;25.20;;;;;;;0.01;93.56;99168.44;1726423;83;25897;-73
2022/01/20 03:43:48;;;;;;;42.80;23.35;;;;;;;0.01;93.23;99176.41;1726554;83;25620;-72
2022/01/20 03:46:15;;;;;;;43.75;23.45;;;;;;;0.00;93.97;99167.64;1726610;83;27579;-72
2022/01/20 03:48:52;;;;;;;46.33;23.02;;;;;;;-0.01;94.30;99162.84;1726520;83;25603;-72
2022/01/20 03:51:23;;;;;;;41.65;24.00;;;;;;;-0.02;94.75;99167.91;1726654;83;25676;-72
2022/01/20 03:53:54;;;;;;;41.00;23.05;;;;;;;0.00;93.94;99172.96;1726582;83;25655;-72
2022/01/20 03:56:22;;;;;;;41.37;22.20;;;;;;;0.01;93.98;99168.44;1726656;83;25443;-72
2022/01/20 03:58:50;;;;;;;42.78;23.05;;;;;;;-0.01;93.84;99170.81;1726458;82;27480;-72
2022/01/20 04:01:18;;;;;;;44.43;24.83;;;;;;;0.00;94.38;99171.63;1726265;83;25642;-73
2022/01/20 04:03:45;;;;;;;39.92;24.20;;;;;;;0.01;94.73;99167.89;1726062;83;25733;-73
2022/01/20 04:06:13;;;;;;;40.43;20.97;;;;;;;-0.01;94.72;99161.51;1725992;83;26185;-72
2022/01/20 04:08:46;;;;;;;42.60;21.97;;;;;;;0.00;95.20;99168.97;1725996;83;25670;-72
2022/01/20 04:11:23;;;;;;;35.90;20.35;;;;;;;0.01;95.26;99157.26;1725957;83;27377;-72
2022/01/20 04:13:51;;;;;;;39.85;21.48;;;;;;;0.02;95.42;99164.69;1724602;83;25811;-72
2022/01/20 04:16:37;;;;;;;41.15;21.33;;;;;;;0.03;95.70;99167.09;1726041;83;25725;-72
2022/01/20 04:19:07;;;;;;;41.10;21.17;;;;;;;0.02;95.94;99162.85;1726035;83;25846;-73
2022/01/20 04:21:36;;;;;;;37.80;21.95;;;;;;;0.05;96.23;99160.17;1726133;83;25750;-73
2022/01/20 04:24:05;;;;;;;39.50;21.27;;;;;;;0.05;96.15;99158.34;1726133;82;27460;-72
2022/01/20 04:26:35;;;;;;;44.53;21.13;;;;;;;0.05;96.70;99146.38;1726249;83;25650;-72
2022/01/20 04:29:01;;;;;;;40.35;20.72;;;;;;;0.07;96.82;99161.52;1725983;83;26022;-72
2022/01/20 04:31:30;;;;;;;40.48;21.85;;;;;;;0.08;96.44;99153.00;1726048;83;25465;-72
2022/01/20 04:33:58;;;;;;;33.83;18.35;;;;;;;0.09;96.39;99142.10;1726269;83;32477;-74
2022/01/20 04:36:26;;;;;;;32.55;18.73;;;;;;;0.10;96.47;99147.70;1726104;83;27518;-73
2022/01/20 04:38:53;;;;;;;32.83;17.67;;;;;;;0.12;97.07;99142.08;1725925;82;25638;-75
2022/01/20 04:41:20;;;;;;;34.98;19.65;;;;;;;0.14;97.32;99146.63;1726027;83;25613;-75
2022/01/20 04:43:47;;;;;;;31.02;18.42;;;;;;;0.15;96.88;99140.22;1726046;83;25559;-75
2022/01/20 04:59:35;;;;;;;31.57;17.42;;;;;;;0.31;97.32;99122.39;1668370;85;25827;-75
2022/01/20 05:02:02;;;;;;;29.23;17.15;;;;;;;0.32;96.88;99116.81;1665026;86;28130;-74
2022/01/20 05:04:29;;;;;;;29.10;17.67;;;;;;;0.35;96.91;99122.11;1664842;86;25800;-73
2022/01/20 05:06:56;;;;;;;32.85;18.85;;;;;;;0.37;97.16;99117.31;1664940;86;25707;-74
2022/01/20 05:09:23;;;;;;;32.70;19.10;;;;;;;0.40;97.81;99115.45;1664780;86;25851;-74
2022/01/20 05:12:00;;;;;;;31.68;18.52;;;;;;;0.42;96.97;99106.66;1642196;86;25740;-74
2022/01/20 05:14:20;;;;;;;31.45;19.02;;;;;;;0.45;98.06;99102.13;1664825;86;27322;-75
2022/01/20 05:16:47;;;;;;;27.85;17.32;;;;;;;0.48;97.67;99092.28;1664763;86;26642;-76
2022/01/20 05:19:13;;;;;;;30.02;17.98;;;;;;;0.50;98.37;99094.67;1661231;86;25707;-76
2022/01/20 05:21:39;;;;;;;30.45;17.73;;;;;;;0.53;97.89;99088.81;1642209;86;25714;-77
2022/01/20 05:24:07;;;;;;;32.63;17.67;;;;;;;0.55;97.58;99099.44;1664893;86;25336;-76
2022/01/20 05:26:33;;;;;;;30.92;18.25;;;;;;;0.57;97.21;99088.52;1651108;86;28033;-76
2022/01/20 05:28:59;;;;;;;31.15;18.02;;;;;;;0.61;97.04;99092.76;1656659;85;25819;-76
2022/01/20 05:31:26;;;;;;;32.28;18.30;;;;;;;0.63;97.70;99094.61;1663759;86;25469;-76
2022/01/20 05:33:52;;;;;;;32.05;19.07;;;;;;;0.65;97.27;99098.61;1663623;86;25668;-76
2022/01/20 05:36:19;;;;;;;27.07;16.55;;;;;;;0.66;96.96;99096.73;1692258;83;25510;-76
2022/01/20 05:38:45;;;;;;;28.15;18.15;;;;;;;0.69;96.87;99104.97;1724424;83;27395;-76
2022/01/20 05:41:13;;;;;;;34.23;18.60;;;;;;;0.71;97.62;99105.48;1697622;83;26069;-76
2022/01/20 05:43:39;;;;;;;31.48;18.50;;;;;;;0.73;97.18;99098.05;1724460;83;25644;-75
2022/01/20 05:46:05;;;;;;;27.90;17.50;;;;;;;0.76;97.44;99095.36;1724402;83;25484;-75
2022/01/20 05:48:34;;;;;;;31.75;19.17;;;;;;;0.78;96.89;99095.88;1724488;83;25775;-77
2022/01/20 05:51:03;;;;;;;29.90;18.92;;;;;;;0.80;97.62;99086.29;1724476;81;27620;-77
2022/01/20 05:53:31;;;;;;;32.20;18.82;;;;;;;0.78;97.23;99089.22;1724424;83;25623;-77
2022/01/20 05:55:57;;;;;;;28.35;17.73;;;;;;;0.78;96.67;99077.24;1724443;83;25680;-77
2022/01/20 05:58:24;;;;;;;30.57;17.82;;;;;;;0.77;96.84;99065.02;1701572;83;25612;-77
2022/01/20 06:00:51;;;;;;;29.95;18.73;;;;;;;0.76;97.71;99070.61;1699982;83;25554;-75
2022/01/20 06:03:36;;;;;;;29.15;18.57;;;;;;;0.75;97.06;99072.48;1727416;83;27326;-75
2022/01/20 06:06:09;;;;;;;30.15;17.80;;;;;;;0.74;97.21;99084.19;1726214;83;26281;-76
2022/01/20 06:08:44;;;;;;;29.05;16.17;;;;;;;0.74;96.68;99133.44;1699559;83;25447;-76
2022/01/20 06:11:11;;;;;;;29.42;13.03;;;;;;;0.73;96.38;99146.47;1726258;83;25509;-76
2022/01/20 06:13:38;;;;;;;15.38;9.00;;;;;;;0.64;95.25;99128.94;1726092;83;25604;-76
2022/01/20 06:16:05;;;;;;;13.05;6.53;;;;;;;0.54;94.21;99136.95;1725952;83;28014;-75
2022/01/20 06:18:32;;;;;;;15.80;6.87;;;;;;;0.47;93.65;99139.90;1725912;83;25462;-76
2022/01/20 06:21:00;;;;;;;14.83;6.15;;;;;;;0.44;93.11;99135.66;1725936;83;25556;-76
2022/01/20 06:23:26;;;;;;;11.20;5.45;;;;;;;0.40;93.25;99127.41;1725944;83;25897;-76
2022/01/20 06:25:56;;;;;;;10.82;5.28;;;;;;;0.38;93.34;99118.92;1726024;83;25685;-76
2022/01/20 06:28:23;;;;;;;15.05;5.70;;;;;;;0.34;93.00;99114.67;1725964;83;27336;-75
2022/01/20 06:30:50;;;;;;;14.38;4.87;;;;;;;0.33;93.00;99114.39;1725911;83;25545;-75
2022/01/20 06:33:16;;;;;;;9.33;4.55;;;;;;;0.32;92.61;99116.81;1725936;83;25496;-75
2022/01/20 06:35:42;;;;;;;12.18;5.67;;;;;;;0.30;92.68;99108.28;1725893;83;25710;-75
2022/01/20 06:38:09;;;;;;;11.25;3.72;;;;;;;0.29;92.93;99101.89;1693273;84;25493;-76
2022/01/20 06:40:35;;;;;;;11.85;6.00;;;;;;;0.29;92.62;99104.05;1693374;84;27337;-76
2022/01/20 06:43:03;;;;;;;13.48;4.83;;;;;;;0.30;92.77;99112.81;1693264;84;25705;-77
2022/01/20 06:45:29;;;;;;;10.65;4.55;;;;;;;0.27;92.61;99115.46;1693296;84;26342;-76
2022/01/20 06:47:56;;;;;;;13.38;3.75;;;;;;;0.25;92.20;99105.63;1698599;84;25703;-76
2022/01/20 06:50:24;;;;;;;12.35;4.40;;;;;;;0.24;92.12;99102.73;1699362;84;25536;-76
2022/01/20 06:52:51;;;;;;;12.30;3.70;;;;;;;0.23;91.82;99100.33;1699257;84;27328;-76
2022/01/20 06:55:18;;;;;;;11.15;4.47;;;;;;;0.20;91.77;99104.31;1699225;84;25723;-76
2022/01/20 06:57:44;;;;;;;7.45;3.45;;;;;;;0.20;91.55;99084.91;1699380;84;25814;-76
2022/01/20 07:00:16;;;;;;;17.15;4.25;;;;;;;0.19;91.60;99090.77;1706709;83;25687;-76
2022/01/20 07:02:44;;;;;;;10.75;3.17;;;;;;;0.18;91.31;99089.16;1725305;82;25670;-76
2022/01/20 07:05:14;;;;;;;9.15;3.30;;;;;;;0.16;90.56;99079.34;1742748;81;27363;-76
2022/01/20 07:07:42;;;;;;;9.35;3.25;;;;;;;0.15;90.55;99079.06;1721473;82;25747;-76
2022/01/20 07:10:12;;;;;;;10.28;2.98;;;;;;;0.13;90.20;99081.20;1742921;82;25620;-75
2022/01/20 07:12:41;;;;;;;9.43;2.90;;;;;;;0.11;89.02;99089.98;1721724;82;25483;-75
2022/01/20 07:15:09;;;;;;;10.28;2.45;;;;;;;0.09;88.92;99086.80;1743013;82;25563;-75
2022/01/20 07:17:36;;;;;;;9.63;2.77;;;;;;;0.10;88.53;99088.38;1742960;82;27943;-75
2022/01/20 07:20:04;;;;;;;10.28;2.60;;;;;;;0.09;88.41;99094.23;1721531;82;25726;-75
2022/01/20 07:22:30;;;;;;;15.40;3.47;;;;;;;0.07;88.51;99091.05;1724352;82;25312;-75
2022/01/20 07:24:57;;;;;;;10.88;3.00;;;;;;;0.07;87.77;99093.72;1724331;82;25926;-75
2022/01/20 07:27:24;;;;;;;10.88;3.65;;;;;;;0.05;87.19;99099.84;1749454;82;25468;-74
2022/01/20 07:29:50;;;;;;;9.20;2.90;;;;;;;0.05;87.71;99099.02;1749180;82;27456;-75
2022/01/20 07:32:17;;;;;;;14.83;2.58;;;;;;;0.04;87.67;99096.12;1724373;82;25644;-75
2022/01/20 07:34:43;;;;;;;13.05;3.10;;;;;;;0.04;87.35;99092.13;1749425;82;25580;-75
2022/01/20 07:37:10;;;;;;;11.15;2.77;;;;;;;0.06;87.45;99092.66;1749393;80;25503;-75
2022/01/20 07:39:37;;;;;;;8.85;2.33;;;;;;;0.07;87.02;99097.70;1724430;82;25465;-76
2022/01/20 07:42:06;;;;;;;15.08;2.83;;;;;;;0.10;84.90;99099.83;1749418;82;27973;-75
2022/01/20 07:44:33;;;;;;;13.95;2.27;;;;;;;0.15;86.09;99109.13;1749538;82;25675;-75
2022/01/20 07:47:00;;;;;;;7.28;2.90;;;;;;;0.21;86.47;99106.45;1746601;82;25832;-75
2022/01/20 07:49:27;;;;;;;10.20;3.00;;;;;;;0.23;86.08;99114.42;1742955;82;25726;-75
2022/01/20 07:51:54;;;;;;;12.23;2.70;;;;;;;0.27;86.18;99106.16;1743135;82;25570;-75
2022/01/20 07:54:21;;;;;;;7.60;2.65;;;;;;;0.30;86.38;99106.95;1721886;82;28216;-75
2022/01/20 07:56:51;;;;;;;13.13;3.12;;;;;;;0.33;86.06;99097.64;1721866;82;25657;-75
2022/01/20 07:59:16;;;;;;;9.43;3.15;;;;;;;0.36;86.00;99098.45;1720141;82;25675;-74
2022/01/20 08:01:43;;;;;;;13.62;2.52;;;;;;;0.36;85.64;99084.59;1738384;82;25867;-74
2022/01/20 08:04:09;;;;;;;12.00;3.40;;;;;;;0.36;84.75;99088.59;1738150;82;25726;-75
2022/01/20 08:06:35;;;;;;;7.33;2.33;;;;;;;0.41;85.05;99095.77;1738122;82;27985;-76
2022/01/20 08:09:03;;;;;;;8.03;2.87;;;;;;;0.44;85.14;99086.44;1738498;82;25461;-75
2022/01/20 08:11:29;;;;;;;17.75;4.05;;;;;;;0.47;84.79;99089.89;1717071;82;25644;-75
2022/01/20 08:13:56;;;;;;;12.75;3.85;;;;;;;0.64;83.98;99082.91;1738047;82;25674;-75
2022/01/20 08:16:23;;;;;;;12.35;3.20;;;;;;;0.97;82.88;99082.77;1738170;81;25380;-75
2022/01/20 08:18:49;;;;;;;12.53;3.37;;;;;;;1.37;85.04;99088.11;1738061;82;27358;-75
2022/01/20 08:21:16;;;;;;;15.50;3.30;;;;;;;1.71;83.91;99084.11;1737852;82;25734;-75
2022/01/20 08:23:42;;;;;;;8.50;2.62;;;;;;;2.18;84.10;99076.46;1738130;82;25633;-75
2022/01/20 08:26:08;;;;;;;11.73;2.75;;;;;;;2.37;80.49;99084.02;1738213;81;25941;-75
2022/01/20 08:28:35;;;;;;;16.12;2.67;;;;;;;2.53;82.35;99072.61;1738123;82;25746;-74
2022/01/20 08:31:02;;;;;;;9.40;2.58;;;;;;;2.88;79.09;99060.42;1738167;82;27323;-74
2022/01/20 08:33:28;;;;;;;5.20;2.42;;;;;;;3.03;80.28;99057.57;1738080;82;25628;-76
2022/01/20 08:35:55;;;;;;;6.85;2.80;;;;;;;3.01;77.92;99059.71;1738223;82;25579;-75
2022/01/20 08:38:21;;;;;;;11.18;3.42;;;;;;;2.79;76.09;99072.30;1738216;82;26215;-77
2022/01/20 08:40:48;;;;;;;7.53;3.47;;;;;;;2.60;76.95;99033.55;1738185;82;25784;-75
2022/01/20 08:43:15;;;;;;;9.43;2.58;;;;;;;2.48;75.92;99027.84;1738117;82;28034;-73
2022/01/20 08:45:43;;;;;;;6.40;2.75;;;;;;;2.40;76.68;99027.41;1738132;82;25419;-73
2022/01/20 08:48:12;;;;;;;5.37;2.83;;;;;;;2.40;76.28;99035.92;1737994;82;25620;-75
2022/01/20 08:50:39;;;;;;;12.85;2.77;;;;;;;2.34;77.51;99036.53;1738853;81;25746;-75
2022/01/20 08:53:06;;;;;;;13.08;2.83;;;;;;;2.32;77.84;99028.03;1738206;82;25635;-73
2022/01/20 08:55:34;;;;;;;11.05;3.22;;;;;;;2.32;77.66;99012.02;1738079;82;27404;-74
2022/01/20 08:58:00;;;;;;;6.90;2.83;;;;;;;2.35;76.61;99011.45;1738051;82;25561;-74
2022/01/20 09:00:31;;;;;;;11.45;2.58;;;;;;;2.33;76.69;99009.58;1718270;82;25942;-74
2022/01/20 09:02:58;;;;;;;7.17;2.50;;;;;;;2.69;77.51;99016.34;1743049;82;25414;-73
2022/01/20 09:05:24;;;;;;;13.25;2.33;;;;;;;2.79;77.66;99032.23;1743073;82;25563;-74
2022/01/20 09:07:51;;;;;;;6.08;2.40;;;;;;;2.97;75.95;99028.78;1700175;83;27337;-75
2022/01/20 09:10:21;;;;;;;8.68;3.12;;;;;;;3.14;76.23;99044.30;1697037;84;25641;-75
2022/01/20 09:15:39;;;;;;;9.10;2.80;;;;;;;2.90;75.63;99042.26;1697280;84;25868;-74
2022/01/20 09:18:08;;;;;;;15.72;3.05;;;;;;;2.72;74.36;99019.79;1673667;84;25700;-73
2022/01/20 09:20:37;;;;;;;6.55;2.20;;;;;;;2.56;74.24;99013.31;1697341;84;27870;-75
2022/01/20 09:23:06;;;;;;;7.87;2.30;;;;;;;2.41;74.19;99019.63;1697330;83;25742;-75
2022/01/20 09:25:33;;;;;;;9.63;2.92;;;;;;;2.25;73.77;99027.58;1697355;83;25609;-74
2022/01/20 09:28:02;;;;;;;13.32;3.75;;;;;;;2.12;73.72;99026.92;1697226;84;25615;-75
2022/01/20 09:30:29;;;;;;;10.65;2.60;;;;;;;2.05;74.43;98999.25;1677554;84;25737;-74
2022/01/20 09:33:01;;;;;;;8.60;2.65;;;;;;;2.09;74.56;99024.27;1691058;82;27340;-74
2022/01/20 09:35:31;;;;;;;8.58;2.55;;;;;;;2.22;74.66;99016.92;1708653;82;25715;-75
2022/01/20 09:37:59;;;;;;;6.17;2.95;;;;;;;2.19;72.80;99018.03;1673096;83;25828;-74
2022/01/20 09:40:28;;;;;;;8.50;2.87;;;;;;;2.08;72.65;99001.87;1711354;83;25712;-73
2022/01/20 09:42:55;;;;;;;10.65;2.42;;;;;;;2.04;72.52;98986.47;1711582;83;25620;-74
2022/01/20 09:45:21;;;;;;;7.10;2.40;;;;;;;1.95;72.30;98997.48;1711344;82;28561;-74
2022/01/20 09:47:48;;;;;;;9.40;3.12;;;;;;;1.88;70.59;98993.58;1711355;83;25466;-73
2022/01/20 09:50:19;;;;;;;10.10;2.75;;;;;;;1.81;71.52;98981.91;1711339;83;25757;-74
2022/01/20 09:52:47;;;;;;;7.62;2.60;;;;;;;1.75;70.83;98992.36;1705201;83;25700;-75
2022/01/20 09:55:15;;;;;;;9.68;3.27;;;;;;;1.69;71.76;98978.30;1711309;83;25638;-74
2022/01/20 09:57:42;;;;;;;9.00;2.62;;;;;;;1.70;72.55;98991.08;1711325;83;27999;-74
2022/01/20 10:00:13;;;;;;;6.87;2.22;;;;;;;1.65;70.79;98999.91;1710943;83;25688;-74
2022/01/20 10:03:10;;;;;;;9.55;2.42;;;;;;;1.56;71.38;98998.95;1685846;85;25559;-73
2022/01/20 10:05:44;;;;;;;7.35;2.47;;;;;;;1.46;69.91;98991.83;1685465;85;26250;-73
2022/01/20 10:08:23;;;;;;;16.17;3.20;;;;;;;1.36;70.07;98983.38;1645635;86;25650;-74
2022/01/20 10:11:00;;;;;;;8.60;2.50;;;;;;;1.29;71.13;98994.38;1659595;86;27485;-74
2022/01/20 10:13:31;;;;;;;7.47;2.60;;;;;;;1.28;71.81;98988.00;1659366;86;25783;-74
2022/01/20 10:16:14;;;;;;;7.67;3.08;;;;;;;1.23;71.72;98978.17;1625191;86;25654;-74
2022/01/20 10:18:59;;;;;;;8.48;3.10;;;;;;;1.17;71.91;98991.81;1583412;90;25809;-75
2022/01/20 10:21:36;;;;;;;7.60;2.10;;;;;;;1.19;71.77;98998.46;1583416;90;25676;-74
2022/01/20 10:24:12;;;;;;;5.55;2.20;;;;;;;1.25;69.84;98976.02;1583532;90;27423;-73
2022/01/20 10:26:40;;;;;;;9.98;2.67;;;;;;;1.32;68.25;98982.36;1583424;90;25694;-73
2022/01/20 10:29:14;;;;;;;7.67;2.52;;;;;;;1.38;70.68;98990.58;1583348;90;25780;-73
2022/01/20 10:31:51;;;;;;;11.40;2.22;;;;;;;1.46;69.31;98981.98;1583472;90;25776;-73
2022/01/20 10:34:34;;;;;;;8.98;2.12;;;;;;;1.46;70.28;98998.48;1583447;90;25656;-75
2022/01/20 10:37:07;;;;;;;6.83;2.52;;;;;;;1.42;68.12;98984.15;1583561;90;28845;-74
2022/01/20 10:39:40;;;;;;;6.22;2.37;;;;;;;1.41;68.81;98985.21;1633343;86;25740;-73
2022/01/20 10:42:10;;;;;;;8.65;2.85;;;;;;;1.42;69.20;98982.27;1662822;86;25460;-74
2022/01/20 10:44:50;;;;;;;10.78;2.90;;;;;;;1.45;68.92;98978.27;1657473;86;25488;-74
2022/01/20 10:47:21;;;;;;;10.25;3.15;;;;;;;1.47;69.58;98984.89;1657449;86;25700;-73
2022/01/20 10:49:49;;;;;;;8.33;2.15;;;;;;;1.48;67.13;98975.83;1657434;86;27348;-74
2022/01/20 10:52:21;;;;;;;7.55;2.60;;;;;;;1.50;68.37;98979.55;1657372;86;25818;-72
2022/01/20 10:54:52;;;;;;;9.78;2.72;;;;;;;1.58;68.71;98969.59;1657539;86;25441;-73
2022/01/20 10:57:32;;;;;;;11.88;2.37;;;;;;;1.70;68.01;98971.87;1629767;86;26282;-72
2022/01/20 11:00:09;;;;;;;11.00;3.40;;;;;;;1.88;68.23;98953.03;1629887;86;25665;-73
2022/01/20 11:02:36;;;;;;;6.12;2.05;;;;;;;2.02;66.67;98949.14;1695169;84;27361;-72
2022/01/20 11:05:04;;;;;;;5.92;2.65;;;;;;;1.96;63.94;98959.59;1699302;84;26193;-73
2022/01/20 11:07:30;;;;;;;7.37;3.30;;;;;;;2.10;62.86;98945.06;1695541;84;25655;-74
2022/01/20 11:10:05;;;;;;;8.15;2.10;;;;;;;2.13;63.55;98952.47;1699360;84;25893;-73
2022/01/20 11:12:34;;;;;;;7.33;2.25;;;;;;;2.26;63.14;98971.00;1699537;84;25701;-73
2022/01/20 11:15:04;;;;;;;8.55;2.25;;;;;;;2.31;63.08;98947.70;1699334;84;27339;-74
2022/01/20 11:17:33;;;;;;;8.80;2.80;;;;;;;2.24;60.20;98945.94;1699310;84;26236;-74
2022/01/20 11:20:17;;;;;;;10.40;2.20;;;;;;;2.06;62.30;98955.51;1699544;84;25625;-73
2022/01/20 11:23:02;;;;;;;9.90;2.87;;;;;;;1.84;60.79;98947.48;1699330;84;25851;-73
2022/01/20 11:25:39;;;;;;;6.65;2.37;;;;;;;1.69;60.99;98943.64;1699514;84;25627;-72
2022/01/20 11:28:10;;;;;;;7.08;2.27;;;;;;;1.53;62.61;98938.20;1698638;84;27417;-72
2022/01/20 11:30:42;;;;;;;5.28;2.47;;;;;;;1.39;61.50;98947.41;1699362;84;25662;-72
2022/01/20 11:33:12;;;;;;;7.85;2.33;;;;;;;1.31;63.37;98939.46;1699395;84;26264;-72
2022/01/20 11:35:56;;;;;;;7.35;2.35;;;;;;;1.30;64.05;98949.33;1699449;84;25869;-73
2022/01/20 11:38:36;;;;;;;10.95;3.12;;;;;;;1.28;64.83;98957.36;1699440;84;25647;-76
2022/01/20 11:41:03;;;;;;;9.25;3.33;;;;;;;1.23;64.93;98956.08;1699421;84;27885;-73
2022/01/20 11:43:49;;;;;;;11.03;3.05;;;;;;;1.22;65.35;98976.57;1699267;84;25466;-73
2022/01/20 11:46:20;;;;;;;5.37;2.12;;;;;;;1.17;65.03;98975.83;1699420;84;25500;-73
2022/01/20 11:49:08;;;;;;;4.58;1.80;;;;;;;1.15;64.58;98968.11;1699353;84;25620;-73
2022/01/20 11:51:55;;;;;;;4.05;1.80;;;;;;;1.18;64.73;98971.55;1699471;84;25441;-72
2022/01/20 11:54:41;;;;;;;3.98;1.75;;;;;;;1.71;66.38;98971.36;1699407;84;27341;-73
2022/01/20 11:57:14;;;;;;;3.52;1.90;;;;;;;2.26;65.46;98959.78;1699262;84;25774;-72
2022/01/20 11:59:46;;;;;;;4.08;1.82;;;;;;;2.85;66.36;98957.65;1699361;84;25657;-72
2022/01/20 12:02:35;;;;;;;4.00;2.05;;;;;;;3.45;65.34;98960.17;1691973;84;25888;-73
2022/01/20 12:05:05;;;;;;;4.53;1.93;;;;;;;3.65;63.09;98967.05;1689343;83;25634;-74
2022/01/20 12:07:34;;;;;;;6.25;1.85;;;;;;;3.82;61.95;98973.16;1670971;84;27876;-71
2022/01/20 12:10:11;;;;;;;5.47;2.77;;;;;;;4.10;63.68;98969.41;1691721;84;25721;-71
2022/01/20 12:12:39;;;;;;;5.50;2.25;;;;;;;4.38;62.50;98981.98;1635875;86;25672;-71
2022/01/20 12:15:16;;;;;;;4.65;1.80;;;;;;;4.17;59.71;98960.16;1658861;86;25554;-72
2022/01/20 12:17:54;;;;;;;11.78;4.85;;;;;;;3.73;57.40;98993.90;1661407;86;25511;-72
2022/01/20 12:20:23;;;;;;;3.98;2.08;;;;;;;3.34;58.26;99009.80;1658998;86;28179;-70
2022/01/20 12:22:51;;;;;;;4.45;1.57;;;;;;;2.90;58.44;99024.34;1659082;86;25813;-71
2022/01/20 12:25:26;;;;;;;5.15;1.60;;;;;;;2.55;58.95;99010.37;1658891;86;25700;-70
2022/01/20 12:28:09;;;;;;;3.62;1.95;;;;;;;2.17;59.26;99005.52;1680538;85;25457;-73
2022/01/20 12:30:47;;;;;;;2.08;1.50;;;;;;;1.93;60.50;99013.53;1656418;86;25728;-72
2022/01/20 12:33:14;;;;;;;4.12;2.30;;;;;;;1.68;61.91;99005.47;1680359;85;27915;-72
2022/01/20 12:35:48;;;;;;;;;;;;;;;1.58;63.27;99016.23;1658833;86;25519;-73
2022/01/20 12:38:26;;;;;;;7.53;3.85;;;;;;;1.72;63.68;99008.40;1675501;85;25668;-73
2022/01/20 12:41:06;;;;;;;3.85;2.33;;;;;;;2.01;64.21;99014.22;1675229;85;25878;-71
2022/01/20 12:43:51;;;;;;;4.60;2.15;;;;;;;2.42;64.32;99007.10;1675213;85;25478;-72
2022/01/20 12:46:27;;;;;;;3.50;1.90;;;;;;;2.78;64.54;99016.77;1675339;85;27388;-72
2022/01/20 12:49:05;;;;;;;5.37;2.25;;;;;;;3.40;66.16;99018.52;1674446;85;25686;-72
2022/01/20 12:51:39;;;;;;;4.58;1.92;;;;;;;3.91;66.06;99006.93;1675143;85;25683;-72